Time;durP1;ratioP1;P1;durP2;ratioP2;P2;SDS_P1;SDS_P2;PMS_P1;PMS_P2;Temp;Humidity;BMP_temperature;BMP_pressure;BME280_temperature;BME280_humidity;BME280_pressure;Samples;Min_cycle;Max_cycle;Signal;HPM_P1;HPM_P2
2023/04/04 00:01:59;;;;;;;2.53;2.10;;;;;;;12.35;74.11;93184.59;5083670;28;20210;-49
2023/04/04 00:04:27;;;;;;;2.23;2.03;;;;;;;12.34;74.26;93183.78;5069247;28;20259;-49
2023/04/04 00:06:54;;;;;;;2.07;1.80;;;;;;;12.37;74.36;93190.34;5068933;28;20243;-53
2023/04/04 00:09:21;;;;;;;2.10;2.00;;;;;;;12.37;74.15;93188.56;5068698;28;20244;-48
2023/04/04 00:11:49;;;;;;;2.57;2.37;;;;;;;12.36;74.33;93192.09;5069128;28;20277;-49
2023/04/04 00:14:16;;;;;;;2.03;1.93;;;;;;;12.37;74.35;93190.34;5068594;28;20190;-50
2023/04/04 00:16:43;;;;;;;3.23;2.13;;;;;;;12.38;74.35;93192.69;5068889;28;20703;-49
2023/04/04 00:19:13;;;;;;;2.47;2.07;;;;;;;12.37;74.06;93193.69;5069164;28;20186;-52
2023/04/04 00:21:39;;;;;;;2.10;2.00;;;;;;;12.39;74.24;93190.94;5068809;28;20293;-50
2023/04/04 00:24:07;;;;;;;2.40;2.20;;;;;;;12.33;74.36;93178.88;5068842;28;20578;-50
2023/04/04 00:26:33;;;;;;;2.67;2.47;;;;;;;12.39;74.35;93185.78;5069128;28;20201;-53
2023/04/04 00:29:01;;;;;;;3.53;2.80;;;;;;;12.34;74.19;93178.66;5068899;28;20647;-52
2023/04/04 00:31:28;;;;;;;3.17;2.53;;;;;;;12.39;74.40;93181.50;5068787;28;20197;-59
2023/04/04 00:33:55;;;;;;;2.40;2.20;;;;;;;12.39;74.40;93176.38;5068983;28;20221;-48
2023/04/04 00:36:22;;;;;;;2.63;2.43;;;;;;;12.40;74.26;93169.47;5068950;28;20197;-56
2023/04/04 00:38:49;;;;;;;3.37;2.70;;;;;;;12.40;74.46;93172.81;5068888;28;20281;-50
2023/04/04 00:41:16;;;;;;;3.70;2.53;;;;;;;12.42;74.56;93170.06;5068732;28;20203;-51
2023/04/04 00:43:44;;;;;;;3.63;2.50;;;;;;;12.39;74.47;93166.13;5068927;28;20187;-63
2023/04/04 00:46:14;;;;;;;4.00;2.50;;;;;;;12.41;74.58;93166.69;5068914;28;20182;-55
2023/04/04 00:48:41;;;;;;;3.13;2.60;;;;;;;12.42;74.45;93162.38;5069063;28;20305;-53
2023/04/04 00:51:07;;;;;;;3.93;2.97;;;;;;;12.42;74.51;93152.91;5068571;28;20566;-56
2023/04/04 00:53:34;;;;;;;2.80;2.30;;;;;;;12.43;74.39;93146.78;5068868;28;20187;-49
2023/04/04 00:56:02;;;;;;;3.00;2.27;;;;;;;12.44;74.33;93150.97;5069335;28;20229;-52
2023/04/04 00:58:30;;;;;;;5.27;2.63;;;;;;;12.43;74.51;93151.13;5072732;28;20270;-53
2023/04/04 01:00:57;;;;;;;2.10;2.00;;;;;;;12.45;74.48;93155.09;5072687;28;20205;-51
2023/04/04 01:03:25;;;;;;;2.30;2.10;;;;;;;12.45;74.43;93155.09;5072991;28;20711;-58
2023/04/04 01:05:52;;;;;;;2.50;2.30;;;;;;;12.45;74.46;93157.66;5075640;28;20299;-54
2023/04/04 01:08:22;;;;;;;3.53;2.47;;;;;;;12.47;74.36;93163.38;5075951;28;20214;-49
2023/04/04 01:10:50;;;;;;;2.13;1.93;;;;;;;12.42;74.32;93164.94;5071980;28;20707;-48
2023/04/04 01:13:17;;;;;;;2.60;2.37;;;;;;;12.47;74.27;93177.97;5072276;28;20198;-49
2023/04/04 01:15:44;;;;;;;2.53;2.10;;;;;;;12.50;74.29;93180.97;5072399;28;20198;-48
2023/04/04 01:18:14;;;;;;;2.67;2.47;;;;;;;12.50;74.35;93182.75;5071934;28;20638;-48
2023/04/04 01:20:51;;;;;;;3.20;2.43;;;;;;;12.48;74.08;93182.16;5071904;28;20182;-47
2023/04/04 01:23:19;;;;;;;2.40;2.20;;;;;;;12.50;74.13;93175.06;5072042;28;20190;-48
2023/04/04 01:25:48;;;;;;;2.60;2.40;;;;;;;12.52;73.98;93178.19;5071821;28;20248;-48
2023/04/04 01:28:15;;;;;;;2.00;1.90;;;;;;;12.53;74.06;93179.81;5071981;28;20229;-50
2023/04/04 01:30:42;;;;;;;2.60;2.40;;;;;;;12.54;73.87;93183.94;5072174;28;20187;-47
2023/04/04 01:33:17;;;;;;;2.83;2.33;;;;;;;12.53;74.13;93180.59;5071648;28;20194;-48
2023/04/04 01:35:50;;;;;;;2.37;2.20;;;;;;;12.52;73.89;93168.78;5071523;28;20198;-49
2023/04/04 01:38:25;;;;;;;2.20;2.10;;;;;;;12.53;73.94;93170.34;5071482;28;20194;-48
2023/04/04 01:41:01;;;;;;;2.10;2.00;;;;;;;12.54;73.89;93164.22;5072092;28;20264;-48
2023/04/04 01:43:30;;;;;;;2.23;2.13;;;;;;;12.54;73.88;93158.31;5071536;28;20193;-52
2023/04/04 01:45:58;;;;;;;2.50;2.30;;;;;;;12.54;73.69;93153.19;5071450;28;20198;-50
2023/04/04 01:48:25;;;;;;;2.53;2.30;;;;;;;12.55;73.69;93153.00;5071689;28;20580;-49
2023/04/04 01:50:52;;;;;;;4.33;2.10;;;;;;;12.56;73.59;93140.94;5071439;28;20301;-50
2023/04/04 01:53:19;;;;;;;2.13;2.03;;;;;;;12.57;73.60;93134.09;5071586;28;20183;-50
2023/04/04 01:55:46;;;;;;;2.43;2.23;;;;;;;12.55;73.39;93127.34;5071415;28;20685;-52
2023/04/04 01:58:14;;;;;;;6.33;2.30;;;;;;;12.17;73.47;93056.91;5071267;28;20590;-49
2023/04/04 02:00:41;;;;;;;2.47;2.27;;;;;;;12.56;73.46;93117.88;5071188;28;20202;-48
2023/04/04 02:03:08;;;;;;;2.23;2.13;;;;;;;12.55;73.49;93129.13;5071551;28;20302;-48
2023/04/04 02:05:35;;;;;;;2.37;2.10;;;;;;;12.54;73.39;93136.03;5071070;28;20621;-49
2023/04/04 02:08:01;;;;;;;2.60;2.40;;;;;;;12.55;73.38;93137.59;5070564;28;20230;-50
2023/04/04 02:10:29;;;;;;;2.27;2.00;;;;;;;12.50;73.39;93128.91;5070999;28;20190;-50
2023/04/04 02:12:56;;;;;;;2.10;2.00;;;;;;;12.54;73.30;93137.81;5071003;28;20377;-49
2023/04/04 02:15:25;;;;;;;2.80;2.07;;;;;;;12.54;73.35;93132.66;5070996;28;20194;-48
2023/04/04 02:17:52;;;;;;;2.03;1.93;;;;;;;12.53;73.15;93126.75;5070653;28;20686;-51
2023/04/04 02:20:19;;;;;;;2.00;1.90;;;;;;;12.54;73.13;93130.09;5071154;28;20186;-47
2023/04/04 02:22:52;;;;;;;1.80;1.70;;;;;;;12.52;73.13;93122.63;5070663;28;20272;-52
2023/04/04 02:25:18;;;;;;;2.10;2.00;;;;;;;12.52;73.13;93124.34;5070752;28;20251;-49
2023/04/04 02:27:45;;;;;;;2.10;2.00;;;;;;;12.51;73.25;93123.56;5070728;28;20209;-48
2023/04/04 02:30:13;;;;;;;1.80;1.70;;;;;;;12.51;73.40;93122.78;5071072;28;20194;-50
2023/04/04 02:32:41;;;;;;;2.17;1.97;;;;;;;12.48;73.33;93118.06;5070589;28;20190;-50
2023/04/04 02:35:08;;;;;;;2.17;2.07;;;;;;;12.48;73.16;93121.41;5070563;28;20218;-51
2023/04/04 02:37:35;;;;;;;1.87;1.77;;;;;;;12.47;73.11;93124.94;5070260;28;20566;-49
2023/04/04 02:40:02;;;;;;;1.90;1.80;;;;;;;12.46;73.26;93125.13;5070503;28;20263;-49
2023/04/04 02:42:29;;;;;;;2.17;1.67;;;;;;;12.45;73.01;93132.03;5070565;28;20190;-48
2023/04/04 02:44:56;;;;;;;1.73;1.60;;;;;;;12.45;73.19;93129.47;5071456;28;20244;-49
2023/04/04 02:47:23;;;;;;;1.90;1.80;;;;;;;12.44;73.23;93129.66;5071327;28;20191;-49
2023/04/04 02:49:51;;;;;;;1.80;1.70;;;;;;;12.44;73.07;93125.31;5070040;28;20229;-51
2023/04/04 02:52:18;;;;;;;2.00;1.90;;;;;;;12.44;73.09;93122.75;5070349;28;20690;-49
2023/04/04 02:54:45;;;;;;;1.70;1.60;;;;;;;12.42;72.92;93124.69;5069925;28;20650;-48
2023/04/04 02:57:11;;;;;;;2.90;1.80;;;;;;;12.42;72.72;93131.59;5070216;28;20243;-51
2023/04/04 02:59:38;;;;;;;2.00;1.90;;;;;;;12.44;72.86;93137.34;5070168;28;20194;-48
2023/04/04 03:02:05;;;;;;;1.70;1.60;;;;;;;12.44;72.94;93139.91;5070596;28;20186;-49
2023/04/04 03:04:32;;;;;;;1.80;1.70;;;;;;;12.44;72.88;93140.69;5070676;28;20198;-49
2023/04/04 03:07:00;;;;;;;1.70;1.60;;;;;;;12.43;72.87;93135.75;5070046;28;20187;-51
2023/04/04 03:09:27;;;;;;;1.87;1.77;;;;;;;12.46;72.94;93143.84;5069842;28;20237;-48
2023/04/04 03:11:54;;;;;;;1.77;1.67;;;;;;;12.46;72.60;93148.19;5069838;28;20194;-49
2023/04/04 03:14:21;;;;;;;1.43;1.43;;;;;;;12.46;72.87;93156.69;5069951;28;20186;-53
2023/04/04 03:16:48;;;;;;;1.83;1.73;;;;;;;12.40;72.87;93134.38;5069554;28;20190;-50
2023/04/04 03:19:15;;;;;;;1.70;1.60;;;;;;;12.48;72.86;93153.94;5069308;28;20256;-49
2023/04/04 03:21:42;;;;;;;1.67;1.57;;;;;;;12.49;72.75;93147.84;5072471;28;20281;-49
2023/04/04 03:24:11;;;;;;;2.00;1.67;;;;;;;12.48;72.91;93147.03;5071330;28;20194;-53
2023/04/04 03:26:38;;;;;;;1.70;1.60;;;;;;;12.49;72.91;93146.06;5069843;28;20190;-52
2023/04/04 03:29:05;;;;;;;1.73;1.63;;;;;;;12.48;72.77;93147.03;5069890;28;20213;-53
2023/04/04 03:31:32;;;;;;;1.50;1.40;;;;;;;12.47;72.75;93145.44;5069481;28;20190;-50
2023/04/04 03:33:59;;;;;;;1.60;1.50;;;;;;;12.41;72.72;93132.59;5069870;28;20278;-51
2023/04/04 03:36:26;;;;;;;1.70;1.60;;;;;;;12.30;72.66;93128.75;5069418;28;20222;-56
2023/04/04 03:38:53;;;;;;;1.90;1.70;;;;;;;12.50;72.67;93151.97;5069599;28;20186;-52
2023/04/04 03:41:22;;;;;;;1.90;1.80;;;;;;;12.49;72.98;93155.53;5069661;28;20190;-52
2023/04/04 03:43:49;;;;;;;1.70;1.60;;;;;;;12.50;72.78;93154.53;5070196;28;20694;-48
2023/04/04 03:46:16;;;;;;;1.73;1.63;;;;;;;12.50;72.65;93151.97;5069364;28;20189;-48
2023/04/04 03:48:43;;;;;;;2.07;1.97;;;;;;;12.51;72.71;93153.56;5068920;28;20731;-49
2023/04/04 03:51:10;;;;;;;1.73;1.63;;;;;;;12.51;72.81;93151.78;5069577;28;20194;-50
2023/04/04 03:53:37;;;;;;;2.00;1.80;;;;;;;12.46;72.65;93146.41;5069266;28;20190;-48
2023/04/04 03:56:04;;;;;;;1.87;1.77;;;;;;;12.51;72.83;93151.78;5069689;28;20667;-52
2023/04/04 03:58:35;;;;;;;1.70;1.60;;;;;;;12.51;72.73;93156.91;5068984;28;20194;-53
2023/04/04 04:01:01;;;;;;;1.77;1.67;;;;;;;12.52;72.72;93152.56;5068995;28;20648;-52
2023/04/04 04:03:28;;;;;;;2.13;1.87;;;;;;;12.51;72.81;93153.56;5068907;28;20538;-48
2023/04/04 04:05:55;;;;;;;1.83;1.73;;;;;;;12.52;72.89;93160.25;5069321;28;20194;-51
2023/04/04 04:08:22;;;;;;;2.37;1.90;;;;;;;12.52;72.96;93157.69;5068742;28;20320;-51
2023/04/04 04:10:48;;;;;;;2.10;2.00;;;;;;;12.51;72.95;93153.56;5069169;28;20614;-50
2023/04/04 04:13:15;;;;;;;2.13;1.90;;;;;;;12.40;72.78;93136.13;5068959;28;20634;-48
2023/04/04 04:15:43;;;;;;;3.77;2.07;;;;;;;12.52;72.88;93150.81;5068770;28;20399;-49
2023/04/04 04:18:10;;;;;;;2.17;2.00;;;;;;;12.54;72.84;93158.31;5069148;28;20186;-51
2023/04/04 04:20:37;;;;;;;2.00;1.90;;;;;;;12.55;72.77;93160.69;5069011;28;20202;-50
2023/04/04 04:23:04;;;;;;;2.40;2.13;;;;;;;12.58;72.57;93161.31;5069193;28;20200;-57
2023/04/04 04:25:31;;;;;;;2.23;1.97;;;;;;;12.59;72.79;93163.66;5068846;28;20269;-53
2023/04/04 04:27:58;;;;;;;2.33;2.10;;;;;;;12.56;72.68;93156.34;5069705;28;20194;-52
2023/04/04 04:30:24;;;;;;;3.10;1.97;;;;;;;12.65;72.70;93162.94;5071571;28;20226;-54
2023/04/04 04:32:53;;;;;;;2.50;2.33;;;;;;;12.66;72.64;93171.41;5074439;28;20620;-50
2023/04/04 04:35:19;;;;;;;2.40;2.20;;;;;;;12.69;72.35;93176.16;5074008;28;20182;-60
2023/04/04 04:37:46;;;;;;;2.40;2.20;;;;;;;12.70;72.52;93170.06;5073266;28;20213;-50
2023/04/04 04:40:15;;;;;;;2.43;2.10;;;;;;;12.76;72.50;93172.66;5074478;28;20202;-50
2023/04/04 04:42:45;;;;;;;2.53;2.33;;;;;;;12.80;72.38;93180.75;5074048;28;20182;-51
2023/04/04 04:45:12;;;;;;;2.70;2.50;;;;;;;12.81;72.58;93188.25;5072662;28;20678;-50
2023/04/04 04:47:38;;;;;;;5.17;2.60;;;;;;;12.85;72.23;93196.38;5072685;28;20669;-48
2023/04/04 04:50:08;;;;;;;2.57;2.37;;;;;;;12.87;72.57;93194.44;5072395;28;20681;-49
2023/04/04 04:52:36;;;;;;;3.10;2.53;;;;;;;12.89;72.27;93189.91;5073089;28;20229;-51
2023/04/04 04:55:04;;;;;;;5.17;2.20;;;;;;;12.93;72.30;93200.56;5072585;28;20194;-51
2023/04/04 04:57:32;;;;;;;2.63;2.43;;;;;;;12.96;72.21;93200.22;5072761;28;20318;-54
2023/04/04 04:59:59;;;;;;;2.67;2.47;;;;;;;12.99;72.45;93195.47;5072808;28;20205;-49
2023/04/04 05:02:26;;;;;;;2.93;2.70;;;;;;;12.94;72.06;93187.56;5072662;28;20634;-51
2023/04/04 05:04:53;;;;;;;3.03;2.73;;;;;;;13.06;72.28;93206.56;5072698;28;20648;-51
2023/04/04 05:07:22;;;;;;;3.50;3.00;;;;;;;13.15;72.30;93219.25;5072279;28;20191;-50
2023/04/04 05:09:50;;;;;;;4.27;2.90;;;;;;;13.22;71.96;93213.22;5073076;28;20242;-52
2023/04/04 05:12:17;;;;;;;3.07;2.87;;;;;;;13.29;71.60;93214.00;5073996;28;20266;-50
2023/04/04 05:14:44;;;;;;;3.20;3.00;;;;;;;13.41;71.54;93218.63;5074549;28;20194;-50
2023/04/04 05:17:11;;;;;;;3.73;3.43;;;;;;;13.48;71.42;93217.66;5074015;28;20195;-53
2023/04/04 05:19:38;;;;;;;3.23;2.93;;;;;;;13.55;71.38;93218.47;5074064;28;20277;-49
2023/04/04 05:22:06;;;;;;;4.47;3.50;;;;;;;13.64;71.12;93224.22;5073178;28;20664;-50
2023/04/04 05:24:34;;;;;;;4.10;3.63;;;;;;;13.71;71.07;93224.25;5073256;28;20666;-50
2023/04/04 05:27:01;;;;;;;5.30;3.70;;;;;;;13.83;70.77;93225.28;5073640;28;20202;-51
2023/04/04 05:29:28;;;;;;;4.57;3.33;;;;;;;14.01;70.51;93235.03;5073667;28;20585;-53
2023/04/04 05:31:54;;;;;;;3.73;3.40;;;;;;;14.21;70.28;93233.28;5072920;28;20195;-49
2023/04/04 05:34:21;;;;;;;5.17;3.80;;;;;;;14.39;69.58;93221.63;5072883;28;20182;-49
2023/04/04 05:36:48;;;;;;;4.90;4.07;;;;;;;14.26;68.95;93174.34;5073747;28;20273;-53
2023/04/04 05:39:15;;;;;;;4.07;3.67;;;;;;;14.90;68.50;93239.88;5074043;28;20198;-53
2023/04/04 05:41:43;;;;;;;4.73;3.37;;;;;;;15.03;68.41;93231.34;5073056;28;20182;-50
2023/04/04 05:44:10;;;;;;;5.70;3.60;;;;;;;15.14;68.32;93238.44;5072403;28;20317;-50
2023/04/04 05:46:37;;;;;;;5.60;3.90;;;;;;;15.26;68.16;93244.56;5071732;28;20190;-51
2023/04/04 05:49:03;;;;;;;6.17;4.23;;;;;;;15.39;67.79;93245.53;5071421;28;20218;-54
2023/04/04 05:51:30;;;;;;;4.43;3.60;;;;;;;15.53;67.59;93237.53;5072229;28;20178;-52
2023/04/04 05:53:57;;;;;;;4.33;3.60;;;;;;;15.73;67.20;93240.06;5071429;28;20190;-50
2023/04/04 05:56:24;;;;;;;5.67;3.87;;;;;;;15.98;66.72;93242.75;5071590;28;20230;-53
2023/04/04 05:58:53;;;;;;;4.27;3.83;;;;;;;16.18;66.47;93241.84;5071397;28;20558;-50
2023/04/04 06:01:19;;;;;;;5.07;3.73;;;;;;;16.37;66.26;93246.09;5071585;28;20218;-52
2023/04/04 06:03:46;;;;;;;4.90;3.67;;;;;;;16.08;65.94;93175.25;5071396;28;20186;-51
2023/04/04 06:06:13;;;;;;;3.87;3.37;;;;;;;16.71;65.75;93244.03;5071495;28;20231;-51
2023/04/04 06:08:40;;;;;;;4.80;3.60;;;;;;;16.89;65.55;93248.53;5070931;28;20205;-52
2023/04/04 06:11:07;;;;;;;4.23;3.40;;;;;;;17.09;65.14;93245.75;5071374;28;20600;-54
2023/04/04 06:13:34;;;;;;;5.03;4.17;;;;;;;17.25;64.85;93248.56;5071269;28;20183;-59
2023/04/04 06:16:02;;;;;;;4.00;3.57;;;;;;;17.43;64.51;93254.75;5071278;28;20186;-54
2023/04/04 06:18:29;;;;;;;4.03;3.63;;;;;;;17.43;64.42;93241.84;5071072;28;20685;-58
2023/04/04 06:20:56;;;;;;;4.17;3.30;;;;;;;17.73;64.16;93258.19;5071160;28;20292;-51
2023/04/04 06:23:23;;;;;;;4.33;3.73;;;;;;;17.84;64.06;93261.91;5071122;28;20198;-55
2023/04/04 06:25:50;;;;;;;4.63;3.43;;;;;;;17.96;63.90;93259.34;5070960;28;20190;-52
2023/04/04 06:28:16;;;;;;;4.43;3.60;;;;;;;17.97;64.03;93261.75;5071153;28;20194;-50
2023/04/04 06:30:44;;;;;;;4.40;2.90;;;;;;;17.90;63.94;93247.31;5072059;28;20300;-50
2023/04/04 06:33:12;;;;;;;3.30;3.00;;;;;;;17.90;64.17;93281.72;5071673;28;20190;-58
2023/04/04 06:35:39;;;;;;;4.70;3.60;;;;;;;17.74;64.35;93285.66;5070590;28;20186;-54
2023/04/04 06:38:06;;;;;;;3.43;3.10;;;;;;;17.58;64.45;93293.97;5070724;28;20206;-52
2023/04/04 06:40:33;;;;;;;3.90;2.90;;;;;;;17.40;64.28;93309.44;5070370;28;20191;-52
2023/04/04 06:43:00;;;;;;;3.50;3.20;;;;;;;17.23;64.51;93309.22;5071063;28;20190;-49
2023/04/04 06:45:27;;;;;;;4.50;3.30;;;;;;;17.09;64.27;93315.47;5070932;28;20186;-52
2023/04/04 06:47:54;;;;;;;3.07;2.77;;;;;;;16.97;64.23;93321.34;5070711;28;20649;-50
2023/04/04 06:50:22;;;;;;;4.70;2.87;;;;;;;16.86;64.32;93324.59;5070916;28;20232;-54
2023/04/04 06:52:50;;;;;;;3.20;2.20;;;;;;;16.71;64.40;93324.88;5070067;28;20661;-49
2023/04/04 06:55:17;;;;;;;3.17;2.83;;;;;;;16.58;63.73;93332.72;5071372;28;20199;-49
2023/04/04 06:57:44;;;;;;;3.50;2.83;;;;;;;16.44;64.30;93333.75;5070356;28;20229;-50
2023/04/04 07:00:12;;;;;;;2.50;2.30;;;;;;;16.29;64.03;93334.84;5070367;28;20191;-49
2023/04/04 07:02:39;;;;;;;2.60;2.40;;;;;;;16.13;63.95;93335.28;5070158;28;20201;-49
2023/04/04 07:05:07;;;;;;;2.30;2.10;;;;;;;16.00;64.16;93350.81;5070232;28;20198;-49
2023/04/04 07:07:35;;;;;;;2.00;1.90;;;;;;;15.82;64.09;93354.06;5069986;28;20205;-50
2023/04/04 07:10:02;;;;;;;2.30;2.10;;;;;;;15.71;64.04;93372.69;5070020;28;20708;-50
2023/04/04 07:12:30;;;;;;;2.10;2.00;;;;;;;15.60;63.89;93378.47;5069812;28;20189;-50
2023/04/04 07:14:57;;;;;;;2.20;2.00;;;;;;;15.46;64.13;93395.72;5070219;28;20282;-50
2023/04/04 07:17:24;;;;;;;1.83;1.73;;;;;;;15.31;63.89;93398.47;5069724;28;20247;-49
2023/04/04 07:19:51;;;;;;;2.20;2.10;;;;;;;15.17;64.18;93404.63;5070303;28;20179;-49
2023/04/04 07:22:18;;;;;;;3.20;1.83;;;;;;;15.06;64.22;93406.78;5069911;28;20284;-48
2023/04/04 07:24:47;;;;;;;1.87;1.77;;;;;;;14.95;64.46;93417.66;5069792;28;20183;-49
2023/04/04 07:27:14;;;;;;;4.30;1.80;;;;;;;14.86;64.41;93425.78;5069943;28;20263;-51
2023/04/04 07:29:41;;;;;;;1.70;1.60;;;;;;;14.73;64.25;93429.91;5069356;28;20772;-50
2023/04/04 07:32:08;;;;;;;2.10;1.90;;;;;;;14.64;64.25;93435.44;5069692;28;20193;-48
2023/04/04 07:34:35;;;;;;;1.70;1.60;;;;;;;14.53;64.45;93442.69;5069539;28;20642;-50
2023/04/04 07:37:02;;;;;;;1.80;1.70;;;;;;;14.37;64.35;93432.69;5069785;28;20214;-48
2023/04/04 07:39:29;;;;;;;1.93;1.77;;;;;;;14.38;64.15;93448.91;5068018;28;20664;-48
2023/04/04 07:42:00;;;;;;;1.97;1.87;;;;;;;14.30;64.52;93452.47;5069557;28;20198;-48
2023/04/04 07:44:27;;;;;;;2.10;1.60;;;;;;;14.23;64.10;93461.91;5069145;28;20281;-51
2023/04/04 07:46:53;;;;;;;1.63;1.53;;;;;;;14.13;63.98;93462.28;5069200;28;20642;-50
2023/04/04 07:49:20;;;;;;;1.70;1.60;;;;;;;14.10;64.19;93467.00;5069035;28;20225;-50
2023/04/04 07:51:47;;;;;;;1.90;1.70;;;;;;;14.04;63.95;93464.19;5069268;28;20191;-48
2023/04/04 07:54:14;;;;;;;1.50;1.40;;;;;;;14.03;64.10;93460.03;5069111;28;20220;-49
2023/04/04 07:56:41;;;;;;;1.60;1.50;;;;;;;14.02;63.82;93462.78;5069181;28;20226;-50
2023/04/04 07:59:09;;;;;;;1.53;1.43;;;;;;;14.00;63.87;93465.56;5068910;28;20604;-49
2023/04/04 08:01:37;;;;;;;2.40;1.63;;;;;;;14.00;63.91;93469.91;5069548;28;20582;-49
2023/04/04 08:04:04;;;;;;;1.60;1.50;;;;;;;13.96;63.86;93479.75;5069147;28;20282;-51
2023/04/04 08:06:32;;;;;;;1.53;1.43;;;;;;;13.95;63.75;93482.53;5068586;28;20289;-52
2023/04/04 08:08:59;;;;;;;1.60;1.50;;;;;;;13.90;63.53;93480.50;5069014;28;20255;-48
2023/04/04 08:11:26;;;;;;;1.37;1.27;;;;;;;13.87;63.71;93490.38;5068975;28;20230;-49
2023/04/04 08:13:53;;;;;;;1.50;1.50;;;;;;;13.85;63.64;93497.47;5069566;28;20186;-49
2023/04/04 08:16:21;;;;;;;1.73;1.63;;;;;;;13.81;63.84;93500.41;5070569;28;20194;-48
2023/04/04 08:18:48;;;;;;;3.30;1.40;;;;;;;13.82;63.52;93496.09;5070642;28;20206;-48
2023/04/04 08:21:15;;;;;;;1.63;1.53;;;;;;;13.80;63.52;93508.31;5069174;28;20633;-52
2023/04/04 08:23:42;;;;;;;1.47;1.40;;;;;;;13.78;63.38;93510.28;5069042;28;20205;-51
2023/04/04 08:26:08;;;;;;;1.60;1.50;;;;;;;13.74;63.45;93517.56;5069250;28;20190;-50
2023/04/04 08:28:35;;;;;;;2.27;1.50;;;;;;;13.72;63.30;93516.16;5069121;28;20183;-50
2023/04/04 08:31:03;;;;;;;1.83;1.63;;;;;;;13.69;63.10;93522.47;5068732;28;20226;-50
2023/04/04 08:33:31;;;;;;;1.43;1.40;;;;;;;13.67;63.21;93528.75;5069228;28;20182;-47
2023/04/04 08:35:58;;;;;;;1.40;1.40;;;;;;;13.61;62.98;93524.38;5068528;28;20273;-48
2023/04/04 08:38:25;;;;;;;1.77;1.67;;;;;;;13.56;62.96;93524.94;5068621;28;20195;-48
2023/04/04 08:40:52;;;;;;;1.50;1.40;;;;;;;13.50;62.72;93520.50;5068865;28;20194;-51
2023/04/04 08:43:21;;;;;;;1.50;1.40;;;;;;;13.46;63.07;93521.84;5068685;28;20190;-50
2023/04/04 08:45:50;;;;;;;1.27;1.27;;;;;;;13.46;62.74;93532.13;5068572;28;20213;-48
2023/04/04 08:48:18;;;;;;;2.47;1.53;;;;;;;13.39;62.71;93521.03;5068947;28;20197;-52
2023/04/04 08:50:46;;;;;;;1.30;1.20;;;;;;;13.45;62.62;93533.13;5069017;28;20229;-50
2023/04/04 08:53:15;;;;;;;1.60;1.50;;;;;;;13.45;62.41;93539.03;5069166;28;20277;-48
2023/04/04 08:55:43;;;;;;;1.70;1.60;;;;;;;13.44;62.01;93531.53;5069018;28;20271;-50
2023/04/04 08:58:10;;;;;;;1.40;1.30;;;;;;;13.47;61.92;93549.94;5068815;28;20195;-49
2023/04/04 09:00:39;;;;;;;1.50;1.40;;;;;;;13.51;62.03;93550.34;5069003;28;20732;-49
2023/04/04 09:03:10;;;;;;;2.40;1.40;;;;;;;13.48;61.68;93536.13;5068781;28;20197;-50
2023/04/04 09:05:37;;;;;;;1.30;1.30;;;;;;;13.59;61.57;93554.56;5069246;28;20230;-50
2023/04/04 09:08:06;;;;;;;1.50;1.40;;;;;;;13.63;61.46;93556.59;5068497;28;20194;-48
2023/04/04 09:10:34;;;;;;;1.50;1.40;;;;;;;13.55;61.19;93536.16;5068940;28;20717;-50
2023/04/04 09:13:04;;;;;;;1.50;1.40;;;;;;;13.70;61.25;93554.88;5068499;28;20686;-48
2023/04/04 09:15:32;;;;;;;1.33;1.33;;;;;;;13.71;61.15;93550.53;5068925;28;20692;-49
2023/04/04 09:17:59;;;;;;;2.87;1.50;;;;;;;13.81;61.00;93556.13;5071947;28;20674;-49
2023/04/04 09:20:40;;;;;;;1.40;1.40;;;;;;;13.85;60.71;93551.44;5072788;28;20198;-50
2023/04/04 09:23:10;;;;;;;1.40;1.30;;;;;;;13.87;60.46;93555.41;5073074;28;20198;-50
2023/04/04 09:25:38;;;;;;;1.57;1.47;;;;;;;13.92;60.26;93560.78;5072461;28;20274;-50
2023/04/04 09:28:05;;;;;;;1.93;1.57;;;;;;;13.96;60.12;93566.34;5072084;28;20201;-53
2023/04/04 09:30:34;;;;;;;1.33;1.33;;;;;;;13.99;60.19;93566.78;5072146;28;20724;-51
2023/04/04 09:33:02;;;;;;;1.50;1.40;;;;;;;13.92;60.13;93558.22;5071926;28;20193;-49
2023/04/04 09:35:31;;;;;;;1.50;1.40;;;;;;;13.88;59.97;93545.94;5072318;28;20214;-50
2023/04/04 09:37:58;;;;;;;2.37;1.47;;;;;;;14.00;59.96;93565.00;5071545;28;20194;-52
2023/04/04 09:40:28;;;;;;;2.03;1.43;;;;;;;13.99;59.81;93566.78;5071892;28;20218;-48
2023/04/04 09:42:59;;;;;;;1.50;1.40;;;;;;;13.97;59.96;93579.00;5071429;28;20214;-52
2023/04/04 09:45:26;;;;;;;1.40;1.30;;;;;;;13.95;59.81;93577.63;5071516;28;20271;-50
2023/04/04 09:47:54;;;;;;;1.60;1.50;;;;;;;13.90;59.77;93572.22;5071212;28;20183;-51
2023/04/04 09:50:27;;;;;;;1.60;1.50;;;;;;;13.77;59.65;93576.28;5071739;28;20226;-51
2023/04/04 09:52:56;;;;;;;1.70;1.60;;;;;;;13.79;59.65;93586.38;5071212;28;20194;-50
2023/04/04 09:55:33;;;;;;;1.40;1.40;;;;;;;13.73;59.79;93574.25;5071995;28;20277;-54
2023/04/04 09:58:12;;;;;;;1.50;1.40;;;;;;;13.71;59.65;93576.22;5070920;28;20261;-49
2023/04/04 10:00:41;;;;;;;1.50;1.40;;;;;;;13.71;59.55;93578.78;5071583;28;20194;-51
2023/04/04 10:03:08;;;;;;;1.63;1.53;;;;;;;13.71;59.53;93577.00;5071321;28;20210;-50
2023/04/04 10:05:34;;;;;;;1.80;1.70;;;;;;;13.77;59.41;93580.63;5071203;28;20195;-49
2023/04/04 10:08:14;;;;;;;1.63;1.53;;;;;;;13.84;59.31;93578.91;5070672;28;20577;-52
2023/04/04 10:10:47;;;;;;;1.70;1.60;;;;;;;13.90;59.01;93574.78;5071444;28;20705;-51
2023/04/04 10:13:14;;;;;;;1.40;1.40;;;;;;;13.99;58.74;93579.63;5070847;28;20622;-48
2023/04/04 10:15:44;;;;;;;1.30;1.30;;;;;;;14.08;58.39;93585.44;5071158;28;20217;-51
2023/04/04 10:18:11;;;;;;;1.60;1.50;;;;;;;14.17;58.35;93581.75;5071007;28;20194;-49
2023/04/04 10:20:38;;;;;;;1.60;1.40;;;;;;;14.27;57.91;93586.56;5071101;28;20198;-52
2023/04/04 10:23:06;;;;;;;1.47;1.47;;;;;;;14.27;57.68;93568.56;5070431;28;20642;-49
2023/04/04 10:25:33;;;;;;;5.13;1.60;;;;;;;14.52;57.40;93595.47;5071000;28;20194;-50
2023/04/04 10:28:01;;;;;;;1.30;1.30;;;;;;;14.66;57.34;93593.75;5070961;28;20223;-50
2023/04/04 10:30:28;;;;;;;1.47;1.40;;;;;;;14.80;56.93;93597.19;5071036;28;20225;-49
2023/04/04 10:33:01;;;;;;;1.30;1.30;;;;;;;14.86;56.77;93603.38;5070928;28;20194;-49
2023/04/04 10:35:30;;;;;;;1.60;1.40;;;;;;;14.99;56.60;93609.38;5071035;28;20206;-49
2023/04/04 10:37:58;;;;;;;1.43;1.33;;;;;;;15.03;56.64;93604.66;5070991;28;20194;-51
2023/04/04 10:40:28;;;;;;;1.70;1.60;;;;;;;15.15;56.23;93613.38;5070760;28;20572;-52
2023/04/04 10:42:57;;;;;;;3.03;1.50;;;;;;;15.20;56.30;93623.13;5070853;28;20736;-50
2023/04/04 10:45:27;;;;;;;1.93;1.70;;;;;;;15.22;55.74;93619.38;5070497;28;20186;-49
2023/04/04 10:47:55;;;;;;;1.33;1.33;;;;;;;15.23;55.59;93631.25;5071178;28;20190;-51
2023/04/04 10:50:22;;;;;;;1.37;1.37;;;;;;;15.22;55.57;93629.66;5070150;28;20190;-50
2023/04/04 10:52:50;;;;;;;1.50;1.40;;;;;;;15.18;55.56;93620.75;5070714;28;20190;-51
2023/04/04 10:55:17;;;;;;;1.57;1.47;;;;;;;15.20;55.27;93633.44;5070647;28;20205;-49
2023/04/04 10:57:49;;;;;;;1.50;1.40;;;;;;;15.18;55.40;93640.56;5070599;28;20226;-49
2023/04/04 11:00:18;;;;;;;2.20;1.40;;;;;;;15.11;55.20;93640.53;5070369;28;20642;-50
2023/04/04 11:02:48;;;;;;;1.30;1.30;;;;;;;15.07;55.28;93636.75;5071291;28;20194;-48
2023/04/04 11:05:21;;;;;;;1.60;1.50;;;;;;;15.00;55.27;93631.56;5070310;28;20259;-51
2023/04/04 11:07:54;;;;;;;1.40;1.40;;;;;;;14.95;55.23;93638.28;5070633;28;20193;-49
2023/04/04 11:10:25;;;;;;;1.60;1.50;;;;;;;14.94;54.92;93642.63;5069592;28;20655;-54
2023/04/04 11:12:55;;;;;;;1.37;1.37;;;;;;;14.79;54.90;93621.34;5070376;28;20190;-51
2023/04/04 11:15:23;;;;;;;1.60;1.50;;;;;;;14.89;54.91;93641.59;5069853;28;20531;-49
2023/04/04 11:17:55;;;;;;;1.40;1.30;;;;;;;14.86;54.86;93650.50;5070237;28;20182;-50
2023/04/04 11:20:23;;;;;;;1.50;1.40;;;;;;;14.83;55.05;93652.66;5069748;28;20190;-49
2023/04/04 11:22:51;;;;;;;2.23;1.57;;;;;;;14.79;55.11;93660.75;5070319;28;20214;-53
2023/04/04 11:25:35;;;;;;;1.40;1.40;;;;;;;14.74;55.12;93663.09;5069674;28;20190;-51
2023/04/04 11:28:13;;;;;;;2.20;1.67;;;;;;;14.63;55.05;93649.94;5069969;28;20205;-53
2023/04/04 11:30:47;;;;;;;2.00;1.60;;;;;;;14.63;55.07;93661.03;5069575;28;20214;-52
2023/04/04 11:33:27;;;;;;;1.70;1.60;;;;;;;14.59;54.95;93667.53;5070135;28;20270;-51
2023/04/04 11:35:58;;;;;;;1.77;1.67;;;;;;;14.53;54.96;93663.94;5069911;28;20626;-50
2023/04/04 11:38:28;;;;;;;1.53;1.43;;;;;;;14.36;55.05;93644.59;5069304;28;20197;-52